Terminal Aerodrome Forecast
Issued by NWS

Home | Current Version | Previous Version | Text Only | Print | Product List | Glossary Off
Versions: 1 2 3 4 5 6 7 8 9 10 11 12 13 14 15 16 17 18 19 20 21

686
FTUS43 KICT 201405 AAA
TAFHUT
TAF AMD
KHUT 201405Z 2014/2112 34017G22KT P6SM OVC008
     FM201500 34017G26KT P6SM OVC012
     FM201700 35022G26KT P6SM SCT020 BKN040
     FM202000 35017KT P6SM SKC
     FM202300 36009KT P6SM SKC=

USA.gov is the U.S. government's official web portal to all federal, state and local government web resources and services.